Flight Track Log - Related Links

Times and Time Zones

All times are in EDT time to prevent confusion due to time zone crossing. See the SWA3206 flight status page for this flight to view local times or setup timezone preferences in your user account.

Time Position Orientation Groundspeed Altitude Reporting Facility
EDT Latitude Longitude Course Direction KTS MPH feet Rate Location/Type
Sun 08:41:57 PM 33.4331 -112.0497 269° West 148 170 2,700  Level Albuquerque Center
Sun 08:42:59 PM 33.4353 -112.1178 272° West 205 236 4,300 2,585 Climbing Albuquerque Center
Sun 08:44:00 PM 33.4592 -112.1942 291° West 268 308 8,000 3,659 Climbing Albuquerque Center
Sun 08:45:02 PM 33.5247 -112.1672 19° North 262 302 11,800 2,634 Climbing Albuquerque Center
Sun 08:46:03 PM 33.5422 -112.0686 78° East 309 356 13,400 2,293 Climbing Albuquerque Center
Sun 08:47:05 PM 33.5650 -111.9558 76° East 358 412 16,500 2,927 Climbing Albuquerque Center
Sun 08:48:06 PM 33.5933 -111.8344 74° East 383 441 19,400 3,000 Climbing Albuquerque Center
Sun 08:49:07 PM 33.6431 -111.6825 69° East 413 475 22,600 2,829 Climbing Albuquerque Center
Sun 08:50:09 PM 33.6831 -111.5506 70° East 424 488 25,200 2,244 Climbing Albuquerque Center
Sun 08:51:10 PM 33.7258 -111.4131 69° East 442 509 27,200 1,902 Climbing Albuquerque Center
Sun 08:52:12 PM 33.7700 -111.2711 69° East 456 525 29,100 1,707 Climbing Albuquerque Center
Sun 08:53:13 PM 33.8147 -111.1225 70° East 475 547 30,700 1,561 Climbing Albuquerque Center
Sun 08:54:15 PM 33.8628 -110.9706 69° East 484 557 32,300 1,610 Climbing Albuquerque Center
Sun 08:55:16 PM 33.9097 -110.8175 70° East 488 562 34,000 1,426 Climbing Albuquerque Center
Sun 08:56:17 PM 33.9664 -110.6297 70° East 494 568 35,200 1,220 Climbing Albuquerque Center
Sun 08:57:19 PM 34.0122 -110.4700 71° East 504 580 36,500 1,355 Climbing Albuquerque Center
Sun 08:58:21 PM 34.0625 -110.3078 69° East 515 593 38,000 1,220 Climbing Albuquerque Center
Sun 08:59:22 PM 34.1094 -110.1492 70° East 510 587 39,000 492 Climbing Albuquerque Center
Sun 09:00:23 PM 34.1594 -109.9789 70° East 507 583 39,000  Level Albuquerque Center
Sun 09:01:25 PM 34.2200 -109.8058 67° East 503 579 39,000  Level Albuquerque Center
Sun 09:02:26 PM 34.2719 -109.6569 67° East 503 579 39,000  Level Albuquerque Center
Sun 09:03:27 PM 34.3228 -109.5081 68° East 502 578 39,000  Level Albuquerque Center
Sun 09:04:28 PM 34.3831 -109.3339 67° East 502 578 39,000  Level Albuquerque Center
Sun 09:05:30 PM 34.4336 -109.1847 68° East 503 579 39,000  Level Albuquerque Center
Sun 09:06:31 PM 34.4850 -109.0333 68° East 505 581 39,000  Level Albuquerque Center
Sun 09:07:32 PM 34.5442 -108.8586 68° East 504 580 39,000  Level Albuquerque Center
Sun 09:08:33 PM 34.5944 -108.7047 68° East 508 585 39,000  Level Albuquerque Center
Sun 09:09:35 PM 34.6533 -108.5297 68° East 504 580 39,000  Level Albuquerque Center
Sun 09:10:36 PM 34.7003 -108.3872 68° East 504 580 39,000  Level Albuquerque Center
Sun 09:11:37 PM 34.7519 -108.2286 68° East 504 580 39,000  Level Albuquerque Center
Sun 09:12:38 PM 34.8047 -108.0706 68° East 505 581 39,000  Level Albuquerque Center
Sun 09:13:39 PM 34.8589 -107.8997 69° East 503 579 39,000  Level Albuquerque Center
Sun 09:14:41 PM 34.9075 -107.7531 68° East 505 581 39,000  Level Albuquerque Center
Sun 09:15:42 PM 34.9683 -107.5625 69° East 504 580 39,000  Level Albuquerque Center
Sun 09:16:43 PM 35.0192 -107.4042 69° East 502 578 39,000  Level Albuquerque Center
Sun 09:17:44 PM 35.0694 -107.2453 69° East 501 577 39,000  Level Albuquerque Center
Sun 09:18:45 PM 35.1183 -107.0911 69° East 502 578 39,000  Level Albuquerque Center
Sun 09:19:47 PM 35.1733 -106.9172 69° East 493 567 39,000  Level Albuquerque Center
Sun 09:20:48 PM 35.2225 -106.7664 68° East 496 571 39,000  Level Albuquerque Center
Sun 09:21:49 PM 35.2681 -106.6161 70° East 496 571 39,000  Level Albuquerque Center
Sun 09:22:50 PM 35.3206 -106.4439 69° East 499 574 39,000  Level Albuquerque Center
Sun 09:23:51 PM 35.3700 -106.2850 69° East 498 573 39,000  Level Albuquerque Center
Sun 09:24:53 PM 35.4192 -106.1286 69° East 494 568 39,000  Level Albuquerque Center
Sun 09:25:54 PM 35.4664 -105.9697 70° East 495 570 39,000  Level Albuquerque Center
Sun 09:26:55 PM 35.5144 -105.8133 69° East 493 567 39,000  Level Albuquerque Center
Sun 09:27:56 PM 35.5611 -105.6547 70° East 491 565 39,000  Level Albuquerque Center
Sun 09:28:57 PM 35.6081 -105.4978 70° East 486 559 39,000  Level Albuquerque Center
Sun 09:29:59 PM 35.6617 -105.3144 70° East 484 557 39,000  Level Albuquerque Center
Sun 09:31:00 PM 35.7083 -105.1583 70° East 482 555 39,000  Level Albuquerque Center
Sun 09:32:01 PM 35.7525 -105.0044 70° East 474 545 39,000  Level Albuquerque Center
Sun 09:33:02 PM 35.7994 -104.8469 70° East 479 551 39,000  Level Albuquerque Center
Sun 09:34:03 PM 35.8453 -104.6894 70° East 482 555 39,000  Level Albuquerque Center
Sun 09:35:04 PM 35.8919 -104.5306 70° East 485 558 39,000  Level Albuquerque Center
Sun 09:36:06 PM 35.9367 -104.3719 71° East 484 557 39,000  Level Albuquerque Center
Sun 09:37:07 PM 35.9833 -104.2122 70° East 486 559 39,000  Level Albuquerque Center
Sun 09:38:08 PM 36.0289 -104.0522 71° East 487 560 39,000  Level Albuquerque Center
Sun 09:39:09 PM 36.0733 -103.8922 71° East 487 560 39,000  Level Albuquerque Center
Sun 09:40:10 PM 36.1172 -103.7344 71° East 482 555 39,000  Level Albuquerque Center
Sun 09:41:11 PM 36.1633 -103.5794 70° East 477 549 39,000  Level Albuquerque Center
Sun 09:42:13 PM 36.2069 -103.4214 71° East 477 549 39,000  Level Albuquerque Center
Sun 09:43:14 PM 36.2500 -103.2644 71° East 478 550 39,000  Level Albuquerque Center
Sun 09:44:15 PM 36.2928 -103.1042 72° East 483 556 39,000  Level Albuquerque Center
Sun 09:45:16 PM 36.3356 -102.9461 71° East 481 554 39,000  Level Albuquerque Center
Sun 09:46:17 PM 36.3761 -102.7986 71° East 480 552 39,000  Level Albuquerque Center
Sun 09:47:18 PM 36.4189 -102.6419 71° East 479 551 39,000  Level Albuquerque Center
Sun 09:48:20 PM 36.4700 -102.4531 71° East 481 554 39,000  Level Albuquerque Center
Sun 09:49:21 PM 36.5111 -102.2967 72° East 478 550 39,000  Level Albuquerque Center
Sun 09:50:22 PM 36.5528 -102.1392 72° East 478 550 39,000  Level Albuquerque Center
Sun 09:51:23 PM 36.5944 -101.9831 72° East 477 549 39,000  Level Albuquerque Center
Sun 09:52:24 PM 36.6361 -101.8219 72° East 477 549 39,000  Level Albuquerque Center
Sun 09:53:25 PM 36.6758 -101.6717 72° East 478 550 39,000  Level Albuquerque Center
Sun 09:54:26 PM 36.7206 -101.4950 72° East 479 551 39,000  Level Albuquerque Center
Sun 09:55:33 PM 36.7667 -101.3197 72° East 479 551 39,000  Level Kansas City Center
Sun 09:56:35 PM 36.8042 -101.1689 73° East 478 550 39,000  Level Kansas City Center
Sun 09:57:36 PM 36.8428 -101.0178 72° East 479 551 39,000  Level Kansas City Center
Sun 09:58:37 PM 36.8875 -100.8417 72° East 479 551 39,000  Level Kansas City Center
Sun 09:59:38 PM 36.9244 -100.6917 73° East 476 548 39,000  Level Kansas City Center
Sun 10:00:40 PM 36.9686 -100.5156 73° East 478 550 39,000  Level Kansas City Center
Sun 10:01:41 PM 37.0058 -100.3661 73° East 476 548 39,000  Level Kansas City Center
Sun 10:02:42 PM 37.0422 -100.2175 73° East 471 542 39,000  Level Kansas City Center
Sun 10:03:44 PM 37.0839 -100.0467 73° East 463 533 39,000  Level Kansas City Center
Sun 10:04:45 PM 37.1206 -99.9000 73° East 462 532 39,000  Level Kansas City Center
Sun 10:05:46 PM 37.1611 -99.7308 73° East 458 527 39,000  Level Kansas City Center
Sun 10:06:47 PM 37.1956 -99.5861 73° East 455 524 39,000  Level Kansas City Center
Sun 10:07:48 PM 37.2303 -99.4408 73° East 456 525 39,000  Level Kansas City Center
Sun 10:08:50 PM 37.2667 -99.2897 73° East 455 524 39,000  Level Kansas City Center
Sun 10:09:51 PM 37.3017 -99.1369 74° East 455 524 39,000  Level Kansas City Center
Sun 10:10:52 PM 37.3378 -98.9844 73° East 456 525 39,000  Level Kansas City Center
Sun 10:11:53 PM 37.3797 -98.8028 74° East 454 522 39,000  Level Kansas City Center
Sun 10:12:55 PM 37.4147 -98.6486 74° East 456 525 39,000  Level Kansas City Center
Sun 10:13:56 PM 37.4481 -98.4928 75° East 460 529 39,000  Level Kansas City Center
Sun 10:14:57 PM 37.4842 -98.3394 73° East 459 528 39,000  Level Kansas City Center
Sun 10:15:58 PM 37.5183 -98.1842 74° East 462 532 39,000 246 Level Kansas City Center
Sun 10:16:59 PM 37.5547 -98.0272 74° East 470 541 39,500 732 Climbing Kansas City Center
Sun 10:18:01 PM 37.5897 -97.8686 74° East 475 547 40,500 732 Climbing Kansas City Center
Sun 10:19:02 PM 37.6242 -97.7117 74° East 470 541 41,000 246 Climbing Kansas City Center
Sun 10:20:03 PM 37.6653 -97.5267 74° East 464 534 41,000  Level Kansas City Center
Sun 10:21:04 PM 37.6992 -97.3706 75° East 464 534 41,000  Level Kansas City Center
Sun 10:22:05 PM 37.7331 -97.2144 75° East 463 533 41,000  Level Kansas City Center
Sun 10:23:06 PM 37.7672 -97.0575 75° East 465 535 41,000  Level Kansas City Center
Sun 10:24:08 PM 37.8008 -96.8997 75° East 467 537 41,000  Level Kansas City Center
Sun 10:25:09 PM 37.8342 -96.7417 75° East 467 537 41,000  Level Kansas City Center
Sun 10:26:10 PM 37.8683 -96.5819 75° East 470 541 41,000  Level Kansas City Center
Sun 10:27:11 PM 37.9025 -96.4186 75° East 479 551 41,000  Level Kansas City Center
Sun 10:28:12 PM 37.9369 -96.2553 75° East 481 554 41,000  Level Kansas City Center
Sun 10:29:14 PM 37.9733 -96.0719 76° East 481 554 41,000  Level Kansas City Center
Sun 10:30:15 PM 38.0094 -95.8967 75° East 465 535 41,000  Level Kansas City Center
Sun 10:31:16 PM 38.0397 -95.7425 76° East 470 541 41,000  Level Kansas City Center
Sun 10:32:17 PM 38.0706 -95.5894 76° East 471 542 41,000  Level Kansas City Center
Sun 10:33:18 PM 38.1064 -95.4089 76° East 474 545 41,000  Level Kansas City Center
Sun 10:34:19 PM 38.1367 -95.2544 76° East 474 545 41,000  Level Kansas City Center
Sun 10:35:21 PM 38.1714 -95.0772 76° East 465 535 41,000  Level Kansas City Center
Sun 10:36:22 PM 38.2011 -94.9239 76° East 466 536 41,000  Level Kansas City Center
Sun 10:37:23 PM 38.2311 -94.7711 76° East 467 537 41,000  Level Kansas City Center
Sun 10:38:24 PM 38.2661 -94.5917 76° East 469 540 41,000  Level Kansas City Center
Sun 10:39:25 PM 38.2936 -94.4417 77° East 466 536 41,000  Level Kansas City Center
Sun 10:40:26 PM 38.3233 -94.2900 76° East 463 533 41,000  Level Kansas City Center
Sun 10:41:27 PM 38.3547 -94.1125 77° East 462 532 41,000  Level Kansas City Center
Sun 10:42:28 PM 38.3800 -93.9736 77° East 456 525 41,000  Level Kansas City Center
Sun 10:43:29 PM 38.4103 -93.8156 76° East 456 525 41,000  Level Kansas City Center
Sun 10:44:30 PM 38.4419 -93.6303 78° East 449 517 41,000  Level Kansas City Center
Sun 10:45:31 PM 38.4708 -93.4744 77° East 448 516 41,000  Level Kansas City Center
Sun 10:46:32 PM 38.4992 -93.3192 77° East 447 514 41,000  Level Kansas City Center
Sun 10:47:33 PM 38.5267 -93.1647 77° East 445 512 41,000  Level Kansas City Center
Sun 10:48:34 PM 38.5561 -93.0075 76° East 448 516 41,000  Level Kansas City Center
Sun 10:49:35 PM 38.5814 -92.8514 78° East 447 514 41,000  Level Kansas City Center
Sun 10:50:36 PM 38.6092 -92.6972 77° East 445 512 41,000  Level Kansas City Center
Sun 10:51:37 PM 38.6369 -92.5394 77° East 448 516 41,000  Level Kansas City Center
Sun 10:52:38 PM 38.6633 -92.3844 78° East 446 513 41,000  Level Kansas City Center
Sun 10:53:39 PM 38.6883 -92.2269 78° East 446 513 41,000  Level Kansas City Center
Sun 10:54:40 PM 38.7142 -92.0731 78° East 441 507 41,000  Level Kansas City Center
Sun 10:55:41 PM 38.7400 -91.9194 78° East 438 504 41,000  Level Kansas City Center
Sun 10:56:42 PM 38.7653 -91.7656 78° East 439 505 41,000  Level Kansas City Center
Sun 10:57:43 PM 38.7906 -91.6083 78° East 442 509 41,000  Level Kansas City Center
Sun 10:58:44 PM 38.8161 -91.4536 78° East 444 511 41,000  Level Kansas City Center
Sun 10:59:45 PM 38.8411 -91.3003 78° East 443 510 41,000  Level Kansas City Center
Sun 11:00:46 PM 38.8644 -91.1517 79° East 435 501 41,000  Level Kansas City Center
Sun 11:01:47 PM 38.8872 -91.0042 79° East 428 493 41,000  Level Kansas City Center
Sun 11:02:48 PM 38.9106 -90.8558 79° East 425 489 41,000  Level Kansas City Center
Sun 11:03:49 PM 38.9342 -90.7050 79° East 426 490 41,000  Level Kansas City Center
Sun 11:04:50 PM 38.9583 -90.5517 78° East 430 495 41,000  Level Kansas City Center
Sun 11:05:51 PM 38.9817 -90.3975 79° East 435 501 41,000  Level Kansas City Center
Sun 11:06:52 PM 39.0056 -90.2397 79° East 441 507 41,000  Level Kansas City Center
Sun 11:07:53 PM 39.0286 -90.0803 79° East 449 517 41,000  Level Kansas City Center
Sun 11:08:54 PM 39.0547 -89.8956 80° East 448 516 41,000  Level Kansas City Center
Sun 11:09:55 PM 39.0778 -89.7386 79° East 446 513 41,000  Level Kansas City Center
Sun 11:10:55 PM 39.1000 -89.5869 79° East 434 499 41,000  Level Kansas City Center
Sun 11:11:56 PM 39.1231 -89.4228 80° East 430 495 41,000  Level Kansas City Center
Sun 11:12:57 PM 39.1444 -89.2703 80° East 432 497 41,000  Level Kansas City Center
Sun 11:13:58 PM 39.1656 -89.1253 79° East 434 499 41,000  Level Kansas City Center
Sun 11:14:59 PM 39.1864 -88.9728 80° East 433 498 41,000  Level Kansas City Center
Sun 11:16:00 PM 39.2103 -88.8219 78° East 432 497 41,000  Level Kansas City Center
Sun 11:17:01 PM 39.2289 -88.6717 81° East 428 493 41,000  Level Kansas City Center
Sun 11:18:02 PM 39.2514 -88.5125 80° East 421 484 41,000  Level Kansas City Center
Sun 11:19:03 PM 39.2694 -88.3628 81° East 421 484 41,000  Level Kansas City Center
Sun 11:20:04 PM 39.2903 -88.2147 80° East 418 481 41,000  Level Kansas City Center
Sun 11:21:05 PM 39.3103 -88.0681 80° East 415 478 41,000  Level Kansas City Center
Sun 11:22:06 PM 39.3283 -87.9208 81° East 413 475 41,000  Level Kansas City Center
Sun 11:22:59 PM 39.3422 -87.8058 81° East 412 474 41,000  Level Indianapolis Center
Sun 11:23:59 PM 39.3608 -87.6556 81° East 419 482 41,000  Level Indianapolis Center
Sun 11:25:00 PM 39.3828 -87.4906 80° East 423 487 41,000  Level Indianapolis Center
Sun 11:26:01 PM 39.4003 -87.3422 81° East 420 483 41,000  Level Indianapolis Center
Sun 11:27:01 PM 39.4189 -87.1950 81° East 418 481 41,000  Level Indianapolis Center
Sun 11:28:02 PM 39.4364 -87.0494 81° East 413 475 41,000  Level Indianapolis Center
Sun 11:29:03 PM 39.4542 -86.9042 81° East 412 474 41,000  Level Indianapolis Center
Sun 11:30:03 PM 39.4708 -86.7592 81° East 411 473 41,000  Level Indianapolis Center
Sun 11:31:04 PM 39.4883 -86.6147 81° East 410 472 41,000  Level Indianapolis Center
Sun 11:32:04 PM 39.5047 -86.4694 82° East 412 474 41,000  Level Indianapolis Center
Sun 11:33:05 PM 39.5256 -86.2958 81° East 414 476 41,000  Level Indianapolis Center
Sun 11:34:05 PM 39.5411 -86.1506 82° East 416 479 41,000  Level Indianapolis Center
Sun 11:35:06 PM 39.5575 -86.0039 82° East 417 480 41,000  Level Indianapolis Center
Sun 11:36:06 PM 39.5739 -85.8575 82° East 416 479 41,000  Level Indianapolis Center
Sun 11:37:07 PM 39.5903 -85.7089 82° East 420 483 41,000  Level Indianapolis Center
Sun 11:38:08 PM 39.6058 -85.5586 82° East 423 487 41,000  Level Indianapolis Center
Sun 11:39:08 PM 39.6222 -85.4067 82° East 427 491 41,000  Level Indianapolis Center
Sun 11:40:08 PM 39.6389 -85.2533 82° East 431 496 41,000  Level Indianapolis Center
Sun 11:41:08 PM 39.6550 -85.1000 82° East 431 496 41,000  Level Indianapolis Center
Sun 11:42:09 PM 39.6708 -84.9475 82° East 429 494 41,000  Level Indianapolis Center
Sun 11:43:09 PM 39.6872 -84.7878 82° East 429 494 41,000  Level Indianapolis Center
Sun 11:44:10 PM 39.7019 -84.6325 83° East 429 494 41,000  Level Indianapolis Center
Sun 11:45:10 PM 39.7175 -84.4769 83° East 431 496 41,000  Level Indianapolis Center
Sun 11:46:10 PM 39.7325 -84.3214 83° East 432 497 41,000  Level Indianapolis Center
Sun 11:47:11 PM 39.7472 -84.1683 83° East 427 491 41,000  Level Indianapolis Center
Sun 11:48:11 PM 39.7625 -84.0142 83° East 426 490 41,000  Level Indianapolis Center
Sun 11:49:11 PM 39.7758 -83.8592 84° East 429 494 41,000  Level Indianapolis Center
Sun 11:50:12 PM 39.7853 -83.7058 85° East 426 490 41,000  Level Indianapolis Center
Sun 11:51:12 PM 39.7886 -83.5414 88° East 424 488 41,000  Level Indianapolis Center
Sun 11:52:12 PM 39.7972 -83.3842 86° East 431 496 41,000 -50 Level Indianapolis Center
Sun 11:53:13 PM 39.8014 -83.2486 88° East 429 494 40,900  Descending Indianapolis Center
Sun 11:54:13 PM 39.8064 -83.0922 88° East 429 494 41,000 50 Climbing Indianapolis Center
Sun 11:55:13 PM 39.8108 -82.9364 88° East 430 495 41,000  Level Indianapolis Center
Sun 11:56:14 PM 39.8156 -82.7792 88° East 430 495 41,000  Level Indianapolis Center
Sun 11:57:14 PM 39.8194 -82.6228 88° East 431 496 41,000  Level Indianapolis Center
Sun 11:58:14 PM 39.8242 -82.4658 88° East 431 496 41,000  Level Indianapolis Center
Sun 11:59:14 PM 39.8272 -82.3108 88° East 427 491 41,000  Level Indianapolis Center
Mon 12:00:15 AM 39.8308 -82.1553 88° East 426 490 41,000  Level Indianapolis Center
Mon 12:01:15 AM 39.8272 -82.0033 92° East 419 482 41,000  Level Indianapolis Center
Mon 12:02:15 AM 39.8133 -81.8522 97° East 418 481 41,000  Level Indianapolis Center
Mon 12:03:15 AM 39.7989 -81.7008 97° East 418 481 41,000  Level Indianapolis Center
Mon 12:04:16 AM 39.7847 -81.5472 97° East 424 488 41,000  Level Indianapolis Center
Mon 12:04:36 AM 39.7842 -81.5017 91° East 411 473 41,000  Level Cleveland Center
Mon 12:05:36 AM 39.7706 -81.3500 97° East 416 479 41,000  Level Cleveland Center
Mon 12:06:36 AM 39.7550 -81.1986 98° East 416 479 41,000  Level Cleveland Center
Mon 12:07:36 AM 39.7411 -81.0475 97° East 421 484 41,000  Level Cleveland Center
Mon 12:08:36 AM 39.7250 -80.8933 98° East 426 490 41,000  Level Cleveland Center
Mon 12:09:36 AM 39.7106 -80.7394 97° East 426 490 41,000  Level Cleveland Center
Mon 12:11:17 AM 39.6839 -80.4936 98° East 428 493 41,000  Level Indianapolis Center
Mon 12:11:48 AM 39.6781 -80.4044 95° East 426 490 41,000  Level Washington Center
Mon 12:12:48 AM 39.6611 -80.2522 98° East 426 490 41,000 -197 Level Washington Center
Mon 12:13:50 AM 39.6461 -80.0978 97° East 432 497 40,600 -694 Descending Washington Center
Mon 12:14:49 AM 39.6306 -79.9511 98° East 426 490 39,600 -958 Descending Washington Center
Mon 12:15:49 AM 39.6153 -79.7994 97° East 421 484 38,700 -984 Descending Washington Center
Mon 12:16:51 AM 39.5981 -79.6314 98° East 421 484 37,600 -1,059 Descending Washington Center
Mon 12:17:48 AM 39.5783 -79.4742 99° East 431 496 36,600 -958 Descending Washington Center
Mon 12:18:50 AM 39.5622 -79.3225 98° East 431 496 35,700 -900 Descending Washington Center
Mon 12:19:48 AM 39.5458 -79.1764 98° East 437 503 34,800 -900 Descending Washington Center
Mon 12:20:50 AM 39.5272 -79.0247 99° East 437 503 33,900 -1,131 Descending Washington Center
Mon 12:21:50 AM 39.5086 -78.8678 99° East 431 496 32,500 -1,983 Descending Washington Center
Mon 12:22:51 AM 39.4919 -78.7111 98° East 431 496 29,900 -2,600 Descending Washington Center
Mon 12:23:50 AM 39.4731 -78.5597 99° East 431 496 27,300 -2,521 Descending Washington Center
Mon 12:24:50 AM 39.4556 -78.4192 99° East 417 480 24,900 -2,331 Descending Washington Center
Mon 12:25:51 AM 39.4378 -78.2814 99° East 402 463 22,600 -2,231 Descending Washington Center
Mon 12:26:51 AM 39.4219 -78.1519 99° East 380 437 20,400 -2,250 Descending Washington Center
Mon 12:27:51 AM 39.4039 -78.0142 100° East 367 422 18,100 -2,359 Descending Washington Center
Mon 12:28:48 AM 39.3897 -77.8850 98° East 362 417 15,800 -1,641 Descending Washington Center
Mon 12:29:48 AM 39.3942 -77.7614 87° East 350 403 14,900 -1,041 Descending Washington Center
Mon 12:30:49 AM 39.3981 -77.6461 87° East 338 389 13,700 -1,550 Descending Washington Center
Mon 12:31:48 AM 39.3667 -77.5378 111° Southeast 321 369 11,800 -1,526 Descending Washington Center
Mon 12:32:43 AM 39.3500 -77.4500 104° East 286 329 10,800 -1,388 Descending Potomac TRACON
Mon 12:33:49 AM 39.3167 -77.3333 110° East 273 314 9,000 -1,571 Descending Potomac TRACON
Mon 12:34:49 AM 39.2833 -77.2500 117° Southeast 269 310 7,500 -1,500 Descending Potomac TRACON
Mon 12:35:49 AM 39.2667 -77.1667 104° East 260 299 6,000 -1,455 Descending Potomac TRACON
Mon 12:37:01 AM 39.2500 -77.0667 102° East 257 296 4,300 -1,304 Descending Potomac TRACON
Mon 12:38:07 AM 39.2167 -76.9667 113° Southeast 243 280 3,000 -857 Descending Potomac TRACON
Mon 12:39:07 AM 39.2000 -76.9000 108° East 209 241 2,500 -250 Descending Potomac TRACON
Mon 12:40:07 AM 39.2000 -76.8333 90° East 152 175 2,500 -524 Level Potomac TRACON
Mon 12:41:13 AM 39.1833 -76.7667 108° East 147 169 1,400 -818 Descending Potomac TRACON
Mon 12:42:19 AM 39.1833 -76.7333 90° East 122 140 700 -636 Descending Potomac TRACON
Mon 12:44:00 AM 39.1667 -76.6667 142° Southeast  Level FlightAware Approximate
Mon 12:51:00 AM 39.1754 -76.6683 142° Southeast  Level Estimated
Mon 12:52:00 AM 39.1754 -76.6683 142° Southeast  Level Estimated
Mon 12:53:00 AM 39.1754 -76.6683 142° Southeast  Level Estimated
Mon 12:54:00 AM 39.1754 -76.6683 142° Southeast  Level Estimated
Mon 12:55:00 AM 39.1754 -76.6683 142° Southeast  Level Estimated

Login

Don't have an account? Register now (free) for customized features, flight alerts, and more!